CheckWX is a tool to help pilots better visualize weather data.  It is not intended as a substitute for an official pre-flight weather briefing.

17:06:54 UTC

KPTS METAR
Atkinson Municipal Airport
Pittsburg, Kansas, USA
Current

12 mins ago

KPTS 291655Z AUTO 04008KT 10SM CLR 22/12 A3019 RMK AO2 P0003 T02210118
Observed
May-29 @ 16:55 UTC
Wind
  • 040° at 8 KTS
Visibility
Flight Rules
VFR
Cloud Levels
  • Clear skies
Temperature
22°C / 72°F
Dewpoint
12°C / 54°F
Humidity
53%
Altimeter
30.19" Hg
Pressure
1022.32 hPa
Current Rain
0.03"
Previous

32 mins ago

KPTS 291635Z AUTO 01008KT 10SM CLR 22/13 A3019 RMK AO2 P0001 T02190125
Observed
May-29 @ 16:35 UTC
Wind
  • 010° at 8 KTS
Visibility
Flight Rules
VFR
Cloud Levels
  • Clear skies
Temperature
22°C / 72°F
Dewpoint
12°C / 54°F
Humidity
53%
Altimeter
30.19" Hg
Pressure
1022.32 hPa
Current Rain
0.01"
Previous

52 mins ago

KPTS 291615Z AUTO 03005KT 10SM CLR 22/13 A3019 RMK AO2 P0001 T02170125
Observed
May-29 @ 16:15 UTC
Wind
  • 030° at 5 KTS
Visibility
Flight Rules
VFR
Cloud Levels
  • Clear skies
Temperature
22°C / 72°F
Dewpoint
12°C / 54°F
Humidity
53%
Altimeter
30.19" Hg
Pressure
1022.32 hPa
Current Rain
0.01"